Time;durP1;ratioP1;P1;durP2;ratioP2;P2;SDS_P1;SDS_P2;PMS_P1;PMS_P2;Temp;Humidity;BMP_temperature;BMP_pressure;BME280_temperature;BME280_humidity;BME280_pressure;Samples;Min_cycle;Max_cycle;Signal;HPM_P1;HPM_P2
2022/04/16 00:01:55;;;;;;;7.23;6.10;;;9.80;99.90;;;;;;5030795;28;20472;-71
2022/04/16 00:04:22;;;;;;;7.97;6.43;;;9.80;99.90;;;;;;5031899;28;20857;-70
2022/04/16 00:06:50;;;;;;;9.37;6.40;;;9.80;99.90;;;;;;5048684;28;20851;-71
2022/04/16 00:09:17;;;;;;;8.97;6.63;;;9.80;99.90;;;;;;5031808;28;20504;-71
2022/04/16 00:11:44;;;;;;;9.10;5.97;;;9.80;99.90;;;;;;5046729;28;20514;-71
2022/04/16 00:14:10;;;;;;;12.83;8.37;;;9.80;99.90;;;;;;5048038;28;20747;-70
2022/04/16 00:16:37;;;;;;;10.47;8.30;;;9.80;99.90;;;;;;5047837;28;20510;-70
2022/04/16 00:19:04;;;;;;;13.60;9.60;;;9.80;99.90;;;;;;5035702;28;20484;-70
2022/04/16 00:21:30;;;;;;;15.53;9.77;;;9.80;99.90;;;;;;5036916;28;20444;-71
2022/04/16 00:23:59;;;;;;;14.53;9.90;;;9.80;99.90;;;;;;5041377;28;20449;-71
2022/04/16 00:26:26;;;;;;;15.57;10.43;;;9.70;99.90;;;;;;5038317;28;21030;-70
2022/04/16 00:28:53;;;;;;;16.73;11.37;;;9.70;99.90;;;;;;5031537;28;20993;-71
2022/04/16 00:31:19;;;;;;;17.57;12.13;;;9.70;99.90;;;;;;5031371;28;20480;-70
2022/04/16 00:33:46;;;;;;;18.60;12.00;;;9.70;99.90;;;;;;5043905;28;20860;-71
2022/04/16 00:36:14;;;;;;;20.80;13.40;;;9.70;99.90;;;;;;5034139;28;20454;-70
2022/04/16 00:38:41;;;;;;;19.77;13.27;;;9.70;99.90;;;;;;5030439;28;20547;-70
2022/04/16 00:41:09;;;;;;;19.47;12.80;;;9.70;99.90;;;;;;5035629;28;20444;-71
2022/04/16 00:43:35;;;;;;;26.17;13.50;;;9.60;99.90;;;;;;5034359;28;20473;-71
2022/04/16 00:46:02;;;;;;;22.93;14.13;;;9.60;99.90;;;;;;5033607;28;20475;-71
2022/04/16 00:48:28;;;;;;;22.30;14.67;;;9.70;99.90;;;;;;5048491;28;20476;-70
2022/04/16 00:50:56;;;;;;;22.97;13.50;;;9.70;99.90;;;;;;5047657;28;21045;-70
2022/04/16 00:53:25;;;;;;;23.23;14.03;;;9.60;99.90;;;;;;5048193;28;20452;-71
2022/04/16 00:55:52;;;;;;;24.13;15.30;;;9.60;99.90;;;;;;5037839;28;20549;-70
2022/04/16 00:58:20;;;;;;;25.13;14.70;;;9.60;99.90;;;;;;5046213;28;20518;-70
2022/04/16 01:00:47;;;;;;;24.53;15.30;;;9.60;99.90;;;;;;5035564;28;20449;-70
2022/04/16 01:03:13;;;;;;;28.83;15.30;;;9.60;99.90;;;;;;5035200;28;20469;-71
2022/04/16 01:05:40;;;;;;;24.53;15.20;;;9.60;99.90;;;;;;5034524;28;20457;-70
2022/04/16 01:08:08;;;;;;;25.17;14.77;;;9.60;99.90;;;;;;5045264;28;20550;-70
2022/04/16 01:10:35;;;;;;;25.30;15.40;;;9.70;99.90;;;;;;5030451;28;20473;-70
2022/04/16 01:13:03;;;;;;;24.67;15.23;;;9.60;99.90;;;;;;5031904;28;20511;-70
2022/04/16 01:15:32;;;;;;;26.70;15.13;;;9.60;99.90;;;;;;5039499;28;20453;-71
2022/04/16 01:18:02;;;;;;;26.43;15.63;;;9.60;99.90;;;;;;5047749;28;20449;-71
2022/04/16 01:20:29;;;;;;;29.40;15.90;;;9.60;99.90;;;;;;5052384;28;20476;-71
2022/04/16 01:22:58;;;;;;;28.70;15.40;;;9.60;99.90;;;;;;5053848;28;20444;-70
2022/04/16 01:25:27;;;;;;;27.33;16.67;;;9.60;99.90;;;;;;5053069;28;20479;-70
2022/04/16 01:27:54;;;;;;;27.63;15.20;;;9.60;99.90;;;;;;5047664;28;20472;-70
2022/04/16 01:30:23;;;;;;;29.67;17.23;;;9.60;99.90;;;;;;5052577;28;21006;-71
2022/04/16 01:32:50;;;;;;;24.80;16.20;;;9.60;99.90;;;;;;5053599;28;20486;-71
2022/04/16 01:35:17;;;;;;;28.57;16.20;;;9.60;99.90;;;;;;5038539;28;20941;-71
2022/04/16 01:37:45;;;;;;;29.40;15.40;;;9.60;99.90;;;;;;5044960;28;20459;-70
2022/04/16 01:40:15;;;;;;;25.20;16.77;;;9.60;99.90;;;;;;5051231;28;20472;-70
2022/04/16 01:42:43;;;;;;;26.70;16.57;;;9.50;99.90;;;;;;5042011;28;20468;-71
2022/04/16 01:45:11;;;;;;;29.27;16.37;;;9.50;99.90;;;;;;5039774;28;20869;-70
2022/04/16 01:47:38;;;;;;;26.83;16.00;;;9.50;99.90;;;;;;5043012;28;20495;-71
2022/04/16 01:50:07;;;;;;;26.17;15.60;;;9.50;99.90;;;;;;5052758;28;20530;-71
2022/04/16 01:52:33;;;;;;;24.30;16.30;;;9.50;99.90;;;;;;5052258;28;20452;-71
2022/04/16 01:55:00;;;;;;;24.03;15.23;;;9.60;99.90;;;;;;5050742;28;20459;-71
2022/04/16 01:57:28;;;;;;;24.63;14.97;;;9.60;99.90;;;;;;5044043;28;20461;-71
2022/04/16 01:59:55;;;;;;;28.90;16.20;;;9.60;99.90;;;;;;5041959;28;20895;-70
2022/04/16 02:02:22;;;;;;;26.90;16.30;;;9.60;99.90;;;;;;5039408;28;20476;-70
2022/04/16 02:04:48;;;;;;;29.33;16.90;;;9.60;99.90;;;;;;5044543;28;20452;-71
2022/04/16 02:07:15;;;;;;;28.50;17.30;;;9.60;99.90;;;;;;5053597;28;20496;-70
2022/04/16 02:09:42;;;;;;;25.23;16.43;;;9.50;99.90;;;;;;5035801;28;20528;-70
2022/04/16 02:12:09;;;;;;;27.73;17.30;;;9.50;99.90;;;;;;5033164;28;20449;-71
2022/04/16 02:14:37;;;;;;;32.27;17.30;;;9.50;99.90;;;;;;5033834;28;20475;-71
2022/04/16 02:17:08;;;;;;;28.73;17.00;;;9.50;99.90;;;;;;5050254;28;20536;-71
2022/04/16 02:19:36;;;;;;;31.13;16.90;;;9.50;99.90;;;;;;5032439;28;20461;-72
2022/04/16 02:22:03;;;;;;;32.33;17.80;;;9.50;99.90;;;;;;5035192;28;20494;-72
2022/04/16 02:24:30;;;;;;;29.53;17.07;;;9.40;99.90;;;;;;5046624;28;20502;-72
2022/04/16 02:26:58;;;;;;;32.17;17.83;;;9.40;99.90;;;;;;5041525;28;20476;-72
2022/04/16 02:29:24;;;;;;;27.90;16.57;;;9.40;99.90;;;;;;5038159;28;20496;-72
2022/04/16 02:31:53;;;;;;;29.80;18.40;;;9.40;99.90;;;;;;5052350;28;20449;-72
2022/04/16 02:34:20;;;;;;;27.80;16.90;;;9.40;99.90;;;;;;5044505;28;20461;-72
2022/04/16 02:36:47;;;;;;;30.03;17.60;;;9.40;99.90;;;;;;5032597;28;20545;-71
2022/04/16 02:39:14;;;;;;;31.40;17.97;;;9.40;99.90;;;;;;5032236;28;20881;-72
2022/04/16 02:41:41;;;;;;;32.57;17.60;;;9.40;99.90;;;;;;5042473;28;20480;-72
2022/04/16 02:47:04;;;;;;;30.80;18.10;;;9.40;99.90;;;;;;5051883;28;20444;-72
2022/04/16 02:47:08;;;;;;;30.73;17.60;;;9.50;99.90;;;;;;5043241;28;20473;-72
2022/04/16 02:49:36;;;;;;;31.03;17.90;;;9.40;99.90;;;;;;5032209;28;20469;-72
2022/04/16 02:52:03;;;;;;;30.87;17.20;;;9.50;99.90;;;;;;5031846;28;20457;-72
2022/04/16 02:54:30;;;;;;;31.70;17.10;;;9.50;99.90;;;;;;5032018;28;20530;-72
2022/04/16 02:56:56;;;;;;;26.27;16.60;;;9.40;99.90;;;;;;5032256;28;20445;-72
2022/04/16 02:59:23;;;;;;;27.80;17.20;;;9.40;99.90;;;;;;5031912;28;20476;-72
2022/04/16 03:01:49;;;;;;;28.27;16.80;;;9.50;99.90;;;;;;5032085;28;20449;-72
2022/04/16 03:04:18;;;;;;;29.90;17.87;;;9.40;99.90;;;;;;5031233;28;20457;-72
2022/04/16 03:06:44;;;;;;;24.67;15.87;;;9.50;99.90;;;;;;5033199;28;20496;-72
2022/04/16 03:09:11;;;;;;;27.73;17.30;;;9.50;99.90;;;;;;5049540;28;20530;-71
2022/04/16 03:11:38;;;;;;;30.00;17.80;;;9.50;99.90;;;;;;5032041;28;20504;-71
2022/04/16 03:19:30;;;;;;;29.70;17.20;;;9.40;99.90;;;;;;5046182;28;20460;-72
2022/04/16 03:21:57;;;;;;;33.70;18.20;;;9.40;99.90;;;;;;5031618;28;20507;-72
2022/04/16 03:24:24;;;;;;;31.60;16.73;;;9.40;99.90;;;;;;5034466;28;20857;-72
2022/04/16 03:26:50;;;;;;;27.17;16.40;;;9.40;99.90;;;;;;5042117;28;20441;-72
2022/04/16 03:29:17;;;;;;;30.30;18.77;;;9.30;99.90;;;;;;5035669;28;20473;-72
2022/04/16 03:31:43;;;;;;;29.40;18.63;;;9.30;99.90;;;;;;5031989;28;20880;-71
2022/04/16 03:34:10;;;;;;;32.90;19.90;;;9.30;99.90;;;;;;5031041;28;20810;-71
2022/04/16 03:36:38;;;;;;;32.53;19.50;;;9.30;99.90;;;;;;5030642;28;20710;-71
2022/04/16 03:39:05;;;;;;;31.53;18.37;;;9.20;99.90;;;;;;5032528;28;20469;-72
2022/04/16 03:41:31;;;;;;;31.40;19.53;;;9.20;99.90;;;;;;5039938;28;20448;-71
2022/04/16 03:43:58;;;;;;;34.97;20.10;;;9.20;99.90;;;;;;5049505;28;20449;-72
2022/04/16 03:46:24;;;;;;;34.47;17.83;;;9.20;99.90;;;;;;5036400;28;20508;-72
2022/04/16 03:48:51;;;;;;;29.80;18.20;;;9.20;99.90;;;;;;5048474;28;20545;-72
2022/04/16 03:51:18;;;;;;;28.80;17.60;;;9.20;99.90;;;;;;5050253;28;20452;-72
2022/04/16 03:53:46;;;;;;;33.60;18.30;;;9.20;99.90;;;;;;5031393;28;20965;-72
2022/04/16 04:01:41;;;;;;;28.30;16.70;;;9.20;99.90;;;;;;5038425;28;20455;-72
2022/04/16 04:04:08;;;;;;;23.53;15.30;;;9.10;99.90;;;;;;5047378;28;21030;-72
2022/04/16 04:06:34;;;;;;;27.17;14.13;;;9.10;99.90;;;;;;5050106;28;20457;-72
2022/04/16 04:09:02;;;;;;;27.97;14.43;;;9.00;99.90;;;;;;5031039;28;20539;-71
2022/04/16 04:11:29;;;;;;;21.97;14.07;;;9.00;99.90;;;;;;5036274;28;20512;-71
2022/04/16 04:13:56;;;;;;;25.13;14.87;;;9.00;99.90;;;;;;5030415;28;20449;-72
2022/04/16 04:16:22;;;;;;;20.33;13.63;;;9.00;99.90;;;;;;5043454;28;20452;-72
2022/04/16 04:18:49;;;;;;;21.87;12.37;;;8.90;99.90;;;;;;5033368;28;20496;-72
2022/04/16 04:21:16;;;;;;;21.50;11.70;;;8.90;99.90;;;;;;5030778;28;20518;-72
2022/04/16 04:23:42;;;;;;;19.40;12.17;;;8.90;99.90;;;;;;5030614;28;20450;-72
2022/04/16 04:26:11;;;;;;;14.30;10.10;;;8.90;99.90;;;;;;5035126;28;21025;-71
2022/04/16 04:28:37;;;;;;;16.63;10.63;;;8.80;99.90;;;;;;5043191;28;21074;-71
2022/04/16 04:31:04;;;;;;;15.40;10.13;;;8.80;99.90;;;;;;5048348;28;20505;-71
2022/04/16 04:33:33;;;;;;;16.40;9.80;;;8.80;99.90;;;;;;5048196;28;20445;-72
2022/04/16 04:35:59;;;;;;;12.40;9.77;;;8.90;99.90;;;;;;5050154;28;20460;-72
2022/04/16 04:38:26;;;;;;;15.83;10.03;;;8.90;99.90;;;;;;5039832;28;20452;-71
2022/04/16 04:40:53;;;;;;;17.53;10.77;;;8.90;99.90;;;;;;5046396;28;20453;-72
2022/04/16 04:43:21;;;;;;;11.03;8.83;;;8.90;99.90;;;;;;5029745;28;20511;-71
2022/04/16 04:45:48;;;;;;;12.83;10.20;;;8.80;99.90;;;;;;5030203;28;20949;-71
2022/04/16 04:48:14;;;;;;;13.17;10.00;;;8.80;99.90;;;;;;5035846;28;20481;-72
2022/04/16 04:50:41;;;;;;;14.40;10.37;;;8.80;99.90;;;;;;5034597;28;20521;-71
2022/04/16 04:53:08;;;;;;;14.20;10.60;;;8.80;99.90;;;;;;5034002;28;20495;-72
2022/04/16 04:55:34;;;;;;;14.40;10.27;;;8.70;99.90;;;;;;5034019;28;20472;-71
2022/04/16 04:58:01;;;;;;;13.00;10.30;;;8.70;99.90;;;;;;5037577;28;20450;-72
2022/04/16 05:00:29;;;;;;;9.97;8.97;;;8.70;99.90;;;;;;5034164;28;20477;-71
2022/04/16 05:02:56;;;;;;;12.80;9.63;;;8.70;99.90;;;;;;5039516;28;20507;-71
2022/04/16 05:05:23;;;;;;;16.20;10.83;;;8.70;99.90;;;;;;5051485;28;20988;-71
2022/04/16 05:07:49;;;;;;;14.47;10.80;;;8.70;99.90;;;;;;5048865;28;20480;-71
2022/04/16 05:10:16;;;;;;;15.93;10.10;;;8.70;99.90;;;;;;5052085;28;20541;-72
2022/04/16 05:12:43;;;;;;;15.87;10.50;;;8.70;99.90;;;;;;5051824;28;20898;-72
2022/04/16 05:15:09;;;;;;;14.40;10.50;;;8.70;99.90;;;;;;5038728;28;20804;-72
2022/04/16 05:17:38;;;;;;;16.10;10.57;;;8.80;99.90;;;;;;5050898;28;20502;-72
2022/04/16 05:20:07;;;;;;;15.30;10.40;;;8.80;99.90;;;;;;5040010;28;20475;-72
2022/04/16 05:22:34;;;;;;;17.27;11.43;;;8.80;99.90;;;;;;5033838;28;20449;-73
2022/04/16 05:25:00;;;;;;;13.83;10.20;;;8.90;99.90;;;;;;5039506;28;20478;-72
2022/04/16 05:27:30;;;;;;;14.67;10.63;;;8.90;99.90;;;;;;5037732;28;20511;-72
2022/04/16 05:30:06;;;;;;;15.20;10.47;;;8.90;99.90;;;;;;5039650;28;20473;-72
2022/04/16 05:32:35;;;;;;;16.03;10.60;;;8.90;99.90;;;;;;5049865;28;20456;-72
2022/04/16 05:35:04;;;;;;;14.90;9.77;;;8.90;99.90;;;;;;5053010;28;20479;-72
2022/04/16 05:37:31;;;;;;;18.03;11.73;;;8.90;99.90;;;;;;5052107;28;20460;-72
2022/04/16 05:39:57;;;;;;;15.67;11.60;;;8.90;99.90;;;;;;5041422;28;20476;-72
2022/04/16 05:42:24;;;;;;;15.50;10.90;;;8.90;99.90;;;;;;5040271;28;20763;-72
2022/04/16 05:44:51;;;;;;;18.67;11.47;;;8.80;99.90;;;;;;5052708;28;20535;-73
2022/04/16 05:47:17;;;;;;;14.03;10.60;;;8.90;99.90;;;;;;5036755;28;20500;-73
2022/04/16 05:49:44;;;;;;;17.10;11.40;;;8.90;99.90;;;;;;5042861;28;20903;-72
2022/04/16 05:52:12;;;;;;;17.97;12.50;;;8.90;99.90;;;;;;5052868;28;20514;-72
2022/04/16 05:54:39;;;;;;;19.20;12.63;;;8.90;99.90;;;;;;5052807;28;20449;-72
2022/04/16 05:57:07;;;;;;;19.57;11.30;;;8.90;99.90;;;;;;5046477;28;20454;-72
2022/04/16 05:59:34;;;;;;;16.87;11.70;;;9.00;99.90;;;;;;5040371;28;20522;-72
2022/04/16 06:02:01;;;;;;;19.37;12.33;;;9.00;99.90;;;;;;5047423;28;20457;-72
2022/04/16 06:04:28;;;;;;;17.03;11.77;;;9.00;99.90;;;;;;5034739;28;20453;-73
2022/04/16 06:06:54;;;;;;;22.17;15.33;;;9.00;99.90;;;;;;5033237;28;20516;-72
2022/04/16 06:09:22;;;;;;;35.70;18.70;;;9.00;99.90;;;;;;5036196;28;20558;-72
2022/04/16 06:11:51;;;;;;;29.90;15.27;;;8.90;99.90;;;;;;5046115;28;20461;-72
2022/04/16 06:14:18;;;;;;;19.00;12.67;;;8.90;99.90;;;;;;5034855;28;20976;-72
2022/04/16 06:16:45;;;;;;;20.30;12.60;;;8.90;99.90;;;;;;5034075;28;20461;-72
2022/04/16 06:19:11;;;;;;;41.40;21.60;;;8.80;99.90;;;;;;5037601;28;20468;-72
2022/04/16 06:21:38;;;;;;;38.40;19.67;;;8.80;99.90;;;;;;5052109;28;20456;-72
2022/04/16 06:24:05;;;;;;;21.40;12.20;;;8.80;99.90;;;;;;5040261;28;20465;-72
2022/04/16 06:26:33;;;;;;;22.90;13.50;;;8.80;99.90;;;;;;5040907;28;20483;-72
2022/04/16 06:28:59;;;;;;;28.20;15.13;;;8.90;99.90;;;;;;5036856;28;20488;-72
2022/04/16 06:31:26;;;;;;;22.37;13.27;;;8.90;99.90;;;;;;5052476;28;20452;-72
2022/04/16 06:33:53;;;;;;;18.30;11.70;;;9.00;99.90;;;;;;5048273;28;20494;-72
2022/04/16 06:36:19;;;;;;;23.23;14.50;;;9.00;99.90;;;;;;5050631;28;20852;-72
2022/04/16 06:38:46;;;;;;;18.10;11.97;;;9.00;99.90;;;;;;5047026;28;20839;-72
2022/04/16 06:41:13;;;;;;;18.10;11.83;;;9.00;99.90;;;;;;5038233;28;21188;-72
2022/04/16 06:43:41;;;;;;;21.43;13.30;;;9.00;99.90;;;;;;5033889;28;20519;-72
2022/04/16 06:46:07;;;;;;;18.60;11.63;;;9.10;99.90;;;;;;5032785;28;20453;-72
2022/04/16 06:48:34;;;;;;;23.70;12.33;;;9.10;99.90;;;;;;5040604;28;20485;-72
2022/04/16 06:51:00;;;;;;;17.03;10.90;;;9.10;99.90;;;;;;5039777;28;20595;-73
2022/04/16 06:53:27;;;;;;;16.10;10.40;;;9.10;99.90;;;;;;5031755;28;20454;-73
2022/04/16 06:55:54;;;;;;;21.70;12.03;;;9.20;99.90;;;;;;5041501;28;20449;-73
2022/04/16 06:58:21;;;;;;;20.33;11.50;;;9.20;99.90;;;;;;5032054;28;20446;-72
2022/04/16 07:00:49;;;;;;;20.97;11.90;;;9.30;99.90;;;;;;5047929;28;20767;-73
2022/04/16 07:03:15;;;;;;;16.33;10.53;;;9.40;99.90;;;;;;5031763;28;20469;-73
2022/04/16 07:05:42;;;;;;;13.17;9.30;;;9.60;99.90;;;;;;5043959;28;20464;-72
2022/04/16 07:08:09;;;;;;;20.80;9.47;;;9.80;99.90;;;;;;5035017;28;20481;-72
2022/04/16 07:10:35;;;;;;;13.37;8.87;;;10.10;99.90;;;;;;5031433;28;21971;-72
2022/04/16 07:13:02;;;;;;;15.00;9.03;;;10.40;99.90;;;;;;5031744;28;20458;-72
2022/04/16 07:15:29;;;;;;;10.63;7.03;;;10.70;99.90;;;;;;5031791;28;20507;-72
2022/04/16 07:17:57;;;;;;;12.83;8.00;;;11.00;99.90;;;;;;5045692;28;20478;-72
2022/04/16 07:20:24;;;;;;;11.73;8.73;;;11.20;99.90;;;;;;5050645;28;20476;-72
2022/04/16 07:22:51;;;;;;;10.20;7.10;;;11.50;99.90;;;;;;5051088;28;20498;-72
2022/04/16 07:25:17;;;;;;;10.00;7.10;;;12.00;99.90;;;;;;5042326;28;20832;-72
2022/04/16 07:27:44;;;;;;;9.17;6.67;;;12.30;99.90;;;;;;5043576;28;20452;-72
2022/04/16 07:30:11;;;;;;;9.30;6.93;;;12.40;99.90;;;;;;5050354;28;20492;-72
2022/04/16 07:32:38;;;;;;;9.83;7.07;;;12.30;99.90;;;;;;5048483;28;20452;-72
2022/04/16 07:35:07;;;;;;;11.80;8.33;;;11.90;99.90;;;;;;5030293;28;20489;-72
2022/04/16 07:37:34;;;;;;;11.50;7.40;;;11.60;99.90;;;;;;5043700;28;20499;-72
2022/04/16 07:40:00;;;;;;;11.43;7.87;;;11.10;99.90;;;;;;5040572;28;20992;-72
2022/04/16 07:42:28;;;;;;;12.23;7.90;;;10.80;99.90;;;;;;5046732;28;20444;-71
2022/04/16 07:44:54;;;;;;;12.10;8.67;;;10.50;99.90;;;;;;5036908;28;20453;-73
2022/04/16 07:47:21;;;;;;;11.43;7.90;;;10.40;99.90;;;;;;5041704;28;20514;-73
2022/04/16 07:49:48;;;;;;;10.40;7.43;;;10.30;99.90;;;;;;5037698;28;20559;-74
2022/04/16 07:52:16;;;;;;;10.27;6.93;;;10.30;99.90;;;;;;5030174;28;20462;-74
2022/04/16 07:54:43;;;;;;;13.00;7.30;;;10.20;99.90;;;;;;5048553;28;20456;-73
2022/04/16 07:57:10;;;;;;;10.50;7.10;;;10.00;99.90;;;;;;5040065;28;20507;-74
2022/04/16 07:59:36;;;;;;;12.00;8.10;;;9.90;99.90;;;;;;5032088;28;20965;-73
2022/04/16 08:02:03;;;;;;;14.03;8.20;;;9.80;99.90;;;;;;5050049;28;20456;-73
2022/04/16 08:04:30;;;;;;;14.50;7.97;;;9.60;99.90;;;;;;5049197;28;20468;-73
2022/04/16 08:06:56;;;;;;;13.73;7.80;;;9.60;99.90;;;;;;5037862;28;20522;-73
2022/04/16 08:09:25;;;;;;;12.40;7.57;;;9.60;99.90;;;;;;5050250;28;20492;-73
2022/04/16 08:11:52;;;;;;;15.60;8.93;;;9.60;99.90;;;;;;5030888;28;20461;-72
2022/04/16 08:14:20;;;;;;;15.60;10.67;;;9.50;99.90;;;;;;5033437;28;20452;-72
2022/04/16 08:16:47;;;;;;;29.33;21.00;;;9.60;99.90;;;;;;5037860;28;20472;-73
2022/04/16 08:19:13;;;;;;;65.63;49.27;;;9.70;99.90;;;;;;5037387;28;20465;-72
2022/04/16 08:21:40;;;;;;;50.03;29.47;;;9.80;99.90;;;;;;5042005;28;20452;-71
2022/04/16 08:24:22;;;;;;;19.07;10.23;;;9.80;99.90;;;;;;5048186;28;21028;-72
2022/04/16 08:26:50;;;;;;;15.43;11.30;;;9.90;99.90;;;;;;5043569;28;20477;-73
2022/04/16 08:29:17;;;;;;;11.27;8.60;;;10.10;99.90;;;;;;5030313;28;20493;-73
2022/04/16 08:31:44;;;;;;;13.87;9.70;;;10.60;99.90;;;;;;5030530;28;20552;-73
2022/04/16 08:34:10;;;;;;;17.37;9.53;;;10.90;99.90;;;;;;5030608;28;20461;-73
2022/04/16 08:36:37;;;;;;;12.20;7.50;;;11.20;99.90;;;;;;5043351;28;20821;-73
2022/04/16 08:39:04;;;;;;;12.47;7.60;;;11.50;99.90;;;;;;5031948;28;20465;-73
2022/04/16 08:41:32;;;;;;;9.67;5.40;;;11.70;99.90;;;;;;5041978;28;20538;-73
2022/04/16 08:44:00;;;;;;;13.87;6.70;;;11.90;99.90;;;;;;5030725;28;20508;-73
2022/04/16 08:46:31;;;;;;;11.07;5.90;;;12.20;99.90;;;;;;5040989;28;20516;-73
2022/04/16 08:48:59;;;;;;;11.20;6.23;;;12.40;99.90;;;;;;5050241;28;20558;-73
2022/04/16 08:51:26;;;;;;;10.27;6.50;;;12.50;99.90;;;;;;5050519;28;20454;-73
2022/04/16 08:53:53;;;;;;;13.33;7.20;;;12.60;99.90;;;;;;5036591;28;20449;-73
2022/04/16 08:56:20;;;;;;;9.77;7.00;;;12.90;99.90;;;;;;5046201;28;20498;-73
2022/04/16 08:58:46;;;;;;;11.30;5.63;;;13.20;99.90;;;;;;5049602;28;20460;-73
2022/04/16 09:01:16;;;;;;;15.93;10.33;;;13.40;99.90;;;;;;5046020;28;20457;-73
2022/04/16 09:03:43;;;;;;;16.20;8.60;;;13.50;99.90;;;;;;5030276;28;20461;-73
2022/04/16 09:06:09;;;;;;;11.47;6.83;;;13.20;99.90;;;;;;5043459;28;20452;-73
2022/04/16 09:08:36;;;;;;;15.83;6.63;;;12.90;99.90;;;;;;5049214;28;20452;-73
2022/04/16 09:11:07;;;;;;;7.03;4.33;;;12.70;99.90;;;;;;5033670;28;20880;-73
2022/04/16 09:13:34;;;;;;;8.30;5.83;;;12.60;99.90;;;;;;5038758;28;20503;-73
2022/04/16 09:16:05;;;;;;;10.50;5.90;;;12.70;99.90;;;;;;5038867;28;20511;-73
2022/04/16 09:18:44;;;;;;;9.13;5.23;;;12.90;99.90;;;;;;5042035;28;20511;-73
2022/04/16 09:21:12;;;;;;;6.77;5.20;;;13.20;99.90;;;;;;5050234;28;20452;-73
2022/04/16 09:23:44;;;;;;;10.83;5.30;;;13.60;99.90;;;;;;5032687;28;20446;-73
2022/04/16 09:26:11;;;;;;;7.37;5.40;;;13.70;99.90;;;;;;5038958;28;20515;-73
2022/04/16 09:28:44;;;;;;;9.50;5.90;;;13.60;99.90;;;;;;5032779;28;20515;-74
2022/04/16 09:31:11;;;;;;;7.37;5.40;;;13.90;99.90;;;;;;5041288;28;20545;-73
2022/04/16 09:33:40;;;;;;;8.50;5.27;;;14.20;99.90;;;;;;5038902;28;20456;-74
2022/04/16 09:36:07;;;;;;;7.77;4.80;;;14.20;99.90;;;;;;5037720;28;20457;-74
2022/04/16 09:38:35;;;;;;;8.23;5.00;;;13.90;99.90;;;;;;5049569;28;21141;-73
2022/04/16 09:41:05;;;;;;;8.67;5.17;;;13.80;99.90;;;;;;5039325;28;20459;-73
2022/04/16 09:43:35;;;;;;;7.80;4.23;;;14.10;99.90;;;;;;5044342;28;20483;-74
2022/04/16 09:46:11;;;;;;;7.67;3.80;;;14.30;99.90;;;;;;5035887;28;20832;-74
2022/04/16 09:48:39;;;;;;;6.03;4.33;;;14.40;99.90;;;;;;5044133;28;20445;-73
2022/04/16 09:51:06;;;;;;;6.03;4.00;;;14.60;99.90;;;;;;5042387;28;20498;-73
2022/04/16 09:53:36;;;;;;;5.03;3.80;;;14.90;99.90;;;;;;5046154;28;20441;-73
2022/04/16 09:56:03;;;;;;;11.40;4.53;;;15.10;99.90;;;;;;5038344;28;20449;-74
2022/04/16 09:58:36;;;;;;;8.00;4.17;;;15.50;99.90;;;;;;5041296;28;20445;-73
2022/04/16 10:01:03;;;;;;;4.67;3.90;;;15.60;99.90;;;;;;5038645;28;20535;-75
2022/04/16 10:03:32;;;;;;;5.70;4.00;;;15.80;99.90;;;;;;5040722;28;21420;-75
2022/04/16 10:06:00;;;;;;;3.33;3.03;;;15.60;99.90;;;;;;5041232;28;20476;-75
2022/04/16 10:08:27;;;;;;;4.63;3.80;;;15.30;99.90;;;;;;5043045;28;20953;-75
2022/04/16 10:10:57;;;;;;;7.00;3.60;;;15.40;99.90;;;;;;5046090;28;20534;-74
2022/04/16 10:13:24;;;;;;;5.07;3.50;;;15.40;99.90;;;;;;5042592;28;21030;-73
2022/04/16 10:15:59;;;;;;;6.10;3.17;;;15.50;99.90;;;;;;5039389;28;20449;-74
2022/04/16 10:18:27;;;;;;;4.20;2.90;;;15.60;99.90;;;;;;5042981;28;20464;-72
2022/04/16 10:20:55;;;;;;;2.90;2.60;;;15.50;99.90;;;;;;5040885;28;20440;-74
2022/04/16 10:23:31;;;;;;;3.37;2.47;;;15.80;99.10;;;;;;5040068;28;20453;-73
2022/04/16 10:26:02;;;;;;;3.83;2.80;;;15.60;97.90;;;;;;5040577;28;20440;-74
2022/04/16 10:28:36;;;;;;;3.70;2.50;;;15.60;95.80;;;;;;5034776;28;20454;-73
2022/04/16 10:31:03;;;;;;;2.37;2.17;;;15.40;97.70;;;;;;5035206;28;20821;-73
2022/04/16 10:33:31;;;;;;;6.63;2.80;;;15.60;95.10;;;;;;5041785;28;20448;-74
2022/04/16 10:36:00;;;;;;;3.27;2.97;;;15.50;95.20;;;;;;5040489;28;20531;-74
2022/04/16 10:38:34;;;;;;;3.20;2.73;;;15.70;94.60;;;;;;5048568;28;20881;-74
2022/04/16 10:41:02;;;;;;;2.73;2.03;;;16.00;93.20;;;;;;5040229;28;20445;-74
2022/04/16 10:43:32;;;;;;;2.47;1.87;;;16.10;93.30;;;;;;5034853;28;20432;-74
2022/04/16 10:46:04;;;;;;;2.50;2.03;;;16.40;92.40;;;;;;5037083;28;20476;-73
2022/04/16 10:48:35;;;;;;;2.23;2.03;;;16.50;91.90;;;;;;5038944;28;20459;-75
2022/04/16 10:51:03;;;;;;;3.90;1.70;;;16.30;90.10;;;;;;5036537;28;20516;-74
2022/04/16 10:53:32;;;;;;;4.13;1.83;;;16.40;90.30;;;;;;5050080;28;20464;-74
2022/04/16 10:56:10;;;;;;;2.90;1.67;;;16.30;89.80;;;;;;5048652;28;20499;-73
2022/04/16 10:58:37;;;;;;;3.40;1.70;;;16.60;87.60;;;;;;5034627;28;20448;-74
2022/04/16 11:01:09;;;;;;;2.13;1.50;;;16.40;83.20;;;;;;5035834;28;20504;-74
2022/04/16 11:03:45;;;;;;;1.80;1.60;;;16.60;84.90;;;;;;5039489;28;20428;-74
2022/04/16 11:06:11;;;;;;;4.33;1.50;;;16.70;86.60;;;;;;5042084;28;20427;-73
2022/04/16 11:08:40;;;;;;;1.57;1.30;;;16.60;83.10;;;;;;5042574;28;20450;-74
2022/04/16 11:11:08;;;;;;;1.43;1.33;;;16.60;84.50;;;;;;5038677;28;20462;-74
2022/04/16 11:13:36;;;;;;;1.60;1.50;;;17.00;83.10;;;;;;5037570;28;20450;-74
2022/04/16 11:16:03;;;;;;;1.70;1.60;;;17.20;78.90;;;;;;5036947;28;21128;-75
2022/04/16 11:18:44;;;;;;;1.83;1.43;;;17.20;79.70;;;;;;5040399;28;20496;-74
2022/04/16 11:21:12;;;;;;;2.00;1.90;;;17.30;87.30;;;;;;5044489;28;21011;-76
2022/04/16 11:23:44;;;;;;;1.77;1.60;;;17.60;88.00;;;;;;5041642;28;20427;-76
2022/04/16 11:34:35;;;;;;;2.43;1.50;;;17.60;83.70;;;;;;5039921;28;20852;-76
2022/04/16 11:37:02;;;;;;;1.83;1.53;;;17.90;78.70;;;;;;5047752;28;20453;-76
2022/04/16 11:39:30;;;;;;;1.93;1.40;;;18.30;81.50;;;;;;5041071;28;20497;-76
2022/04/16 11:41:59;;;;;;;1.63;1.53;;;18.50;80.90;;;;;;5042196;28;20925;-76
2022/04/16 11:44:31;;;;;;;1.87;1.50;;;18.70;77.00;;;;;;5036489;28;20947;-76
2022/04/16 11:46:58;;;;;;;6.07;1.30;;;18.40;79.10;;;;;;5047723;28;20527;-76
2022/04/16 11:49:24;;;;;;;1.83;1.67;;;18.40;73.20;;;;;;5033951;28;20947;-76
2022/04/16 11:51:51;;;;;;;3.57;1.50;;;18.20;71.20;;;;;;5045530;28;20778;-76
2022/04/16 11:54:27;;;;;;;5.10;1.60;;;18.20;76.00;;;;;;5038138;28;20492;-77
2022/04/16 11:56:55;;;;;;;5.07;1.67;;;17.90;72.80;;;;;;5043414;28;20466;-76
2022/04/16 11:59:25;;;;;;;3.73;2.33;;;18.10;76.30;;;;;;5045293;28;20469;-76
2022/04/16 12:01:59;;;;;;;3.43;1.90;;;18.10;75.10;;;;;;5043209;28;20924;-76
2022/04/16 12:04:37;;;;;;;2.03;1.63;;;18.40;74.20;;;;;;5045181;28;20432;-76
2022/04/16 12:07:04;;;;;;;1.83;1.50;;;18.10;70.90;;;;;;5033438;28;20511;-76
2022/04/16 12:09:33;;;;;;;1.53;1.40;;;18.40;69.70;;;;;;5042953;28;20524;-76
2022/04/16 12:12:01;;;;;;;1.50;1.40;;;18.40;68.60;;;;;;5033397;28;20503;-76
2022/04/16 12:14:30;;;;;;;4.60;1.73;;;18.10;74.30;;;;;;5047415;28;20453;-76
2022/04/16 12:17:00;;;;;;;1.80;1.53;;;18.10;67.70;;;;;;5042283;28;20423;-75
2022/04/16 12:19:34;;;;;;;2.03;1.57;;;17.90;65.70;;;;;;5038328;28;20486;-76
2022/04/16 12:22:01;;;;;;;1.40;1.30;;;18.00;68.20;;;;;;5038339;28;20423;-76
2022/04/16 12:24:29;;;;;;;1.53;1.43;;;18.10;65.80;;;;;;5033758;28;20454;-76
2022/04/16 12:26:57;;;;;;;1.60;1.50;;;18.20;65.10;;;;;;5032927;28;20857;-76
2022/04/16 12:29:29;;;;;;;1.47;1.37;;;18.20;70.20;;;;;;5039130;28;20444;-76
2022/04/16 12:32:00;;;;;;;1.30;1.20;;;18.50;68.60;;;;;;5031642;28;20458;-76
2022/04/16 12:34:26;;;;;;;1.87;1.60;;;18.70;71.60;;;;;;5043823;28;20455;-76
2022/04/16 12:36:54;;;;;;;1.40;1.30;;;18.60;65.30;;;;;;5034312;28;20460;-76
2022/04/16 12:39:23;;;;;;;3.20;1.50;;;18.70;63.50;;;;;;5037293;28;20964;-76
2022/04/16 12:41:50;;;;;;;1.60;1.50;;;18.80;66.70;;;;;;5046571;28;20448;-76
2022/04/16 12:44:17;;;;;;;3.93;1.50;;;18.70;67.40;;;;;;5039818;28;20453;-77
2022/04/16 12:46:45;;;;;;;1.77;1.60;;;18.70;63.60;;;;;;5034424;28;20518;-76
2022/04/16 12:49:11;;;;;;;3.23;1.50;;;18.50;64.80;;;;;;5042108;28;20484;-76
2022/04/16 12:51:38;;;;;;;2.50;1.30;;;18.60;65.20;;;;;;5044641;28;20549;-77
2022/04/16 12:54:05;;;;;;;3.27;2.10;;;18.80;67.50;;;;;;5040594;28;20870;-76
2022/04/16 12:56:31;;;;;;;2.73;2.53;;;19.30;67.80;;;;;;5038653;28;20445;-76
2022/04/16 12:58:58;;;;;;;4.20;3.80;;;19.60;65.20;;;;;;5040588;28;20480;-76
2022/04/16 13:01:25;;;;;;;3.30;1.60;;;19.90;65.60;;;;;;5043115;28;20968;-76
2022/04/16 13:03:53;;;;;;;1.60;1.50;;;20.00;66.50;;;;;;5046630;28;20514;-76